createdAt,value
2019-03-04T00:00:59.276Z,14.22
2019-03-04T00:04:07.253Z,14.23
2019-03-04T00:07:12.614Z,14.25
2019-03-04T00:08:36.258Z,14.29
2019-03-04T00:09:40.395Z,14.32
2019-03-04T00:10:45.103Z,14.36
2019-03-04T00:11:48.993Z,14.38
2019-03-04T00:12:53.068Z,14.42
2019-03-04T00:13:57.457Z,14.45
2019-03-04T00:15:01.271Z,14.49
2019-03-04T00:16:05.160Z,14.52
2019-03-04T00:17:09.527Z,14.57
2019-03-04T00:18:13.503Z,14.58
2019-03-04T00:19:17.399Z,14.61
2019-03-04T00:20:21.361Z,14.63
2019-03-04T00:21:25.177Z,14.64
2019-03-04T00:22:29.068Z,14.66
2019-03-04T00:23:33.154Z,14.67
2019-03-04T00:24:37.291Z,14.68
2019-03-04T00:25:41.510Z,14.67
2019-03-04T00:26:45.827Z,14.65
2019-03-04T00:27:49.901Z,14.64
2019-03-04T00:28:54.238Z,14.62
2019-03-04T00:29:58.641Z,14.57
2019-03-04T00:31:02.808Z,14.53
2019-03-04T00:32:06.754Z,14.50
2019-03-04T00:33:10.642Z,14.48
2019-03-04T00:34:14.976Z,14.48
2019-03-04T00:35:19.374Z,14.46
2019-03-04T00:36:23.767Z,14.46
2019-03-04T00:37:27.930Z,14.46
2019-03-04T00:38:32.259Z,14.46
2019-03-04T00:39:36.402Z,14.44
2019-03-04T00:40:40.796Z,14.43
2019-03-04T00:41:44.690Z,14.42
2019-03-04T00:42:48.828Z,14.38
2019-03-04T00:43:52.734Z,14.36
2019-03-04T00:44:57.052Z,14.33
2019-03-04T00:46:01.198Z,14.30
2019-03-04T00:47:05.658Z,14.25
2019-03-04T00:48:09.543Z,14.23
2019-03-04T00:49:13.701Z,14.23
2019-03-04T00:50:17.681Z,14.19
2019-03-04T00:51:21.807Z,14.17
2019-03-04T00:52:26.020Z,14.12
2019-03-04T00:53:49.078Z,14.10
2019-03-04T00:54:52.909Z,14.05
2019-03-04T00:56:16.473Z,13.99
2019-03-04T00:57:20.639Z,13.96
2019-03-04T00:58:43.794Z,13.96
2019-03-04T00:59:47.713Z,13.95
2019-03-04T01:00:52.405Z,13.98
2019-03-04T01:03:38.450Z,14.02
2019-03-04T01:04:42.583Z,14.05
2019-03-04T01:05:46.670Z,14.06
2019-03-04T01:07:09.885Z,14.08
2019-03-04T01:08:13.782Z,14.11
2019-03-04T01:09:37.110Z,14.15
2019-03-04T01:11:00.596Z,14.16
2019-03-04T01:12:23.618Z,14.16
2019-03-04T01:15:12.514Z,14.19
2019-03-04T01:16:16.976Z,14.17
2019-03-04T01:17:20.792Z,14.12
2019-03-04T01:18:24.766Z,14.10
2019-03-04T01:19:28.835Z,14.08
2019-03-04T01:20:32.720Z,13.97
2019-03-04T01:21:36.801Z,14.10
2019-03-04T01:22:41.048Z,14.11
2019-03-04T01:23:45.378Z,14.12
2019-03-04T01:24:49.457Z,14.13
2019-03-04T01:25:53.345Z,14.16
2019-03-04T01:26:57.315Z,14.14
2019-03-04T01:28:01.457Z,14.14
2019-03-04T01:29:05.419Z,14.16
2019-03-04T01:30:12.174Z,14.16
2019-03-04T01:31:16.315Z,14.18
2019-03-04T01:32:20.485Z,14.19
2019-03-04T01:33:24.707Z,14.19
2019-03-04T01:34:28.603Z,14.20
2019-03-04T01:35:32.434Z,14.21
2019-03-04T01:36:36.403Z,14.22
2019-03-04T01:37:40.370Z,14.26
2019-03-04T01:38:44.184Z,14.27
2019-03-04T01:39:48.087Z,14.27
2019-03-04T01:40:51.988Z,14.25
2019-03-04T01:41:56.090Z,14.22
2019-03-04T01:43:00.229Z,14.22
2019-03-04T01:44:04.127Z,14.22
2019-03-04T01:45:08.701Z,14.18
2019-03-04T01:46:12.859Z,14.11
2019-03-04T01:47:16.748Z,14.04
2019-03-04T01:48:20.569Z,13.99
2019-03-04T01:49:24.386Z,13.96
2019-03-04T01:50:28.601Z,13.92
2019-03-04T01:51:32.544Z,13.93
2019-03-04T01:52:36.644Z,13.89
2019-03-04T01:53:40.548Z,13.85
2019-03-04T01:54:44.512Z,13.83
2019-03-04T01:55:48.584Z,13.82
2019-03-04T01:56:52.729Z,13.84
2019-03-04T01:57:56.877Z,13.86
2019-03-04T01:59:01.188Z,13.82
2019-03-04T02:00:06.847Z,13.81
2019-03-04T02:01:10.756Z,13.80
2019-03-04T02:02:15.223Z,13.79
2019-03-04T02:03:19.290Z,13.79
2019-03-04T02:04:23.857Z,13.77
2019-03-04T02:05:27.920Z,13.75
2019-03-04T02:06:32.155Z,13.77
2019-03-04T02:07:36.304Z,13.75
2019-03-04T02:08:40.460Z,13.74
2019-03-04T02:09:44.335Z,13.74
2019-03-04T02:10:48.484Z,13.74
2019-03-04T02:11:52.885Z,13.73
2019-03-04T02:12:57.032Z,13.74
2019-03-04T02:14:00.929Z,13.72
2019-03-04T02:15:05.130Z,13.69
2019-03-04T02:16:09.196Z,13.67
2019-03-04T02:17:13.097Z,13.62
2019-03-04T02:18:17.063Z,13.57
2019-03-04T02:19:21.789Z,13.52
2019-03-04T02:20:25.679Z,13.49
2019-03-04T02:21:29.658Z,13.45
2019-03-04T02:22:33.756Z,13.44
2019-03-04T02:23:38.140Z,13.43
2019-03-04T02:24:42.200Z,13.41
2019-03-04T02:26:24.312Z,13.40
2019-03-04T02:27:28.141Z,13.42
2019-03-04T02:28:32.216Z,13.44
2019-03-04T02:29:36.440Z,13.42
2019-03-04T02:30:40.909Z,13.44
2019-03-04T02:31:45.061Z,13.49
2019-03-04T02:32:49.180Z,13.48
2019-03-04T02:33:53.397Z,13.46
2019-03-04T02:34:57.936Z,13.46
2019-03-04T02:36:02.335Z,13.46
2019-03-04T02:37:06.491Z,13.46
2019-03-04T02:38:10.560Z,13.47
2019-03-04T02:39:14.769Z,13.49
2019-03-04T02:40:18.745Z,13.51
2019-03-04T02:41:22.620Z,13.53
2019-03-04T02:42:26.862Z,13.55
2019-03-04T02:43:30.999Z,13.56
2019-03-04T02:44:35.228Z,13.59
2019-03-04T02:45:39.455Z,13.61
2019-03-04T02:46:43.518Z,13.63
2019-03-04T02:47:47.846Z,13.64
2019-03-04T02:48:52.320Z,13.66
2019-03-04T02:49:56.149Z,13.66
2019-03-04T02:51:00.207Z,13.64
2019-03-04T02:52:04.190Z,13.62
2019-03-04T02:53:08.414Z,13.61
2019-03-04T02:54:12.647Z,13.61
2019-03-04T02:55:16.825Z,13.60
2019-03-04T02:56:20.980Z,13.61
2019-03-04T02:57:25.111Z,13.61
2019-03-04T02:58:28.919Z,13.60
2019-03-04T02:59:32.996Z,13.60
2019-03-04T03:00:37.195Z,13.58
2019-03-04T03:01:41.510Z,13.55
2019-03-04T03:02:45.433Z,13.56
2019-03-04T03:03:49.503Z,13.54
2019-03-04T03:04:53.315Z,13.52
2019-03-04T03:05:57.149Z,13.51
2019-03-04T03:07:01.352Z,13.51
2019-03-04T03:08:06.033Z,13.53
2019-03-04T03:09:11.830Z,13.52
2019-03-04T03:10:15.994Z,13.54
2019-03-04T03:11:20.124Z,13.55
2019-03-04T03:12:23.942Z,13.55
2019-03-04T03:13:28.356Z,13.58
2019-03-04T03:14:32.423Z,13.59
2019-03-04T03:15:36.313Z,13.62
2019-03-04T03:16:40.925Z,13.65
2019-03-04T03:17:45.146Z,13.66
2019-03-04T03:18:49.481Z,13.68
2019-03-04T03:19:53.618Z,13.71
2019-03-04T03:20:57.953Z,13.73
2019-03-04T03:22:01.843Z,13.75
2019-03-04T03:23:05.918Z,13.77
2019-03-04T03:24:10.313Z,13.79
2019-03-04T03:25:14.538Z,13.82
2019-03-04T03:26:18.683Z,13.82
2019-03-04T03:27:22.570Z,13.82
2019-03-04T03:28:26.472Z,13.81
2019-03-04T03:29:30.538Z,13.81
2019-03-04T03:30:34.669Z,13.82
2019-03-04T03:31:39.135Z,13.82
2019-03-04T03:32:43.358Z,13.82
2019-03-04T03:33:47.440Z,13.84
2019-03-04T03:34:51.678Z,13.85
2019-03-04T03:35:56.072Z,13.86
2019-03-04T03:37:00.666Z,13.82
2019-03-04T03:38:04.867Z,13.76
2019-03-04T03:39:09.094Z,13.73
2019-03-04T03:40:13.107Z,13.69
2019-03-04T03:41:16.983Z,13.67
2019-03-04T03:42:21.123Z,13.65
2019-03-04T03:43:25.026Z,13.62
2019-03-04T03:44:28.989Z,13.58
2019-03-04T03:45:33.388Z,13.56
2019-03-04T03:46:37.279Z,13.52
2019-03-04T03:47:41.483Z,13.50
2019-03-04T03:48:45.464Z,13.53
2019-03-04T03:49:49.282Z,13.48
2019-03-04T03:50:53.606Z,13.43
2019-03-04T03:51:57.741Z,13.47
2019-03-04T03:53:01.893Z,13.42
2019-03-04T03:54:05.881Z,13.36
2019-03-04T03:55:10.332Z,13.32
2019-03-04T03:56:14.291Z,13.30
2019-03-04T03:57:18.357Z,13.27
2019-03-04T03:58:25.074Z,13.26
2019-03-04T03:59:27.874Z,13.26
2019-03-04T04:00:31.764Z,13.24
2019-03-04T04:01:35.911Z,13.26
2019-03-04T04:02:39.942Z,13.24
2019-03-04T04:03:44.235Z,13.24
2019-03-04T04:04:48.678Z,13.24
2019-03-04T04:05:52.498Z,13.24
2019-03-04T04:06:56.639Z,13.26
2019-03-04T04:08:01.048Z,13.26
2019-03-04T04:09:06.115Z,13.26
2019-03-04T04:10:11.353Z,13.23
2019-03-04T04:11:15.261Z,13.22
2019-03-04T04:12:19.394Z,13.21
2019-03-04T04:13:23.468Z,13.20
2019-03-04T04:14:29.404Z,13.19
2019-03-04T04:15:33.288Z,13.18
2019-03-04T04:16:37.107Z,13.18
2019-03-04T04:17:41.067Z,13.18
2019-03-04T04:18:45.126Z,13.18
2019-03-04T04:19:49.104Z,13.18
2019-03-04T04:20:53.071Z,13.19
2019-03-04T04:21:56.939Z,13.19
2019-03-04T04:23:00.755Z,13.20
2019-03-04T04:24:04.651Z,13.19
2019-03-04T04:25:09.009Z,13.19
2019-03-04T04:26:22.427Z,13.19
2019-03-04T04:27:27.055Z,13.18
2019-03-04T04:28:31.549Z,13.15
2019-03-04T04:29:37.865Z,13.13
2019-03-04T04:30:41.670Z,13.11
2019-03-04T04:31:45.738Z,13.11
2019-03-04T04:32:49.642Z,13.10
2019-03-04T04:33:53.702Z,13.09
2019-03-04T04:34:57.531Z,13.10
2019-03-04T04:36:01.600Z,13.11
2019-03-04T04:37:05.565Z,13.10
2019-03-04T04:38:09.700Z,13.09
2019-03-04T04:39:13.584Z,13.07
2019-03-04T04:40:17.741Z,13.07
2019-03-04T04:41:21.555Z,13.07
2019-03-04T04:42:25.521Z,13.06
2019-03-04T04:43:29.590Z,13.06
2019-03-04T04:44:33.973Z,13.04
2019-03-04T04:45:38.041Z,13.05
2019-03-04T04:46:54.994Z,13.03
2019-03-04T04:47:59.656Z,13.03
2019-03-04T04:49:04.025Z,13.03
2019-03-04T04:50:09.691Z,13.00
2019-03-04T04:51:13.748Z,13.00
2019-03-04T04:52:18.146Z,13.01
2019-03-04T04:53:21.968Z,13.01
2019-03-04T04:54:26.357Z,12.97
2019-03-04T04:55:30.514Z,12.95
2019-03-04T04:56:34.830Z,12.94
2019-03-04T04:57:38.719Z,12.92
2019-03-04T04:58:42.536Z,12.93
2019-03-04T04:59:46.356Z,12.92
2019-03-04T05:00:50.261Z,12.90
2019-03-04T05:01:54.220Z,12.90
2019-03-04T05:02:58.190Z,12.87
2019-03-04T05:04:02.625Z,12.86
2019-03-04T05:05:06.623Z,12.84
2019-03-04T05:06:13.022Z,12.82
2019-03-04T05:07:16.393Z,12.80
2019-03-04T05:08:20.843Z,12.81
2019-03-04T05:09:24.977Z,12.79
2019-03-04T05:10:29.137Z,12.79
2019-03-04T05:11:33.530Z,12.73
2019-03-04T05:12:37.668Z,12.72
2019-03-04T05:13:41.494Z,12.71
2019-03-04T05:14:45.403Z,12.70
2019-03-04T05:15:49.310Z,12.71
2019-03-04T05:16:53.267Z,12.74
2019-03-04T05:17:57.659Z,12.73
2019-03-04T05:19:01.473Z,12.73
2019-03-04T05:20:07.522Z,12.70
2019-03-04T05:21:11.601Z,12.71
2019-03-04T05:22:15.929Z,12.70
2019-03-04T05:23:19.811Z,12.69
2019-03-04T05:24:23.953Z,12.72
2019-03-04T05:25:27.916Z,12.72
2019-03-04T05:26:31.998Z,12.68
2019-03-04T05:27:36.071Z,12.67
2019-03-04T05:28:40.457Z,12.66
2019-03-04T05:29:46.021Z,12.66
2019-03-04T05:30:50.182Z,12.66
2019-03-04T05:31:54.442Z,12.61
2019-03-04T05:32:58.909Z,12.61
2019-03-04T05:34:03.229Z,12.59
2019-03-04T05:35:07.699Z,12.57
2019-03-04T05:36:11.839Z,12.56
2019-03-04T05:37:15.912Z,12.56
2019-03-04T05:38:19.731Z,12.53
2019-03-04T05:39:23.549Z,12.50
2019-03-04T05:40:27.447Z,12.51
2019-03-04T05:41:31.538Z,12.50
2019-03-04T05:42:35.669Z,12.49
2019-03-04T05:43:39.827Z,12.50
2019-03-04T05:44:43.650Z,12.45
2019-03-04T05:45:47.470Z,12.40
2019-03-04T05:46:51.548Z,12.44
2019-03-04T05:47:55.959Z,12.39
2019-03-04T05:48:59.777Z,12.28
2019-03-04T05:50:03.986Z,12.23
2019-03-04T05:51:08.053Z,12.24
2019-03-04T05:52:12.389Z,12.17
2019-03-04T05:53:16.631Z,12.12
2019-03-04T05:54:20.523Z,12.13
2019-03-04T05:55:24.663Z,12.10
2019-03-04T05:56:29.048Z,12.04
2019-03-04T05:57:33.386Z,12.05
2019-03-04T05:58:37.191Z,12.04
2019-03-04T05:59:41.086Z,12.06
2019-03-04T06:00:45.325Z,12.04
2019-03-04T06:02:09.360Z,12.01
2019-03-04T06:03:13.583Z,11.93
2019-03-04T06:04:17.477Z,11.82
2019-03-04T06:05:21.440Z,11.78
2019-03-04T06:06:43.349Z,11.75
2019-03-04T06:07:59.884Z,11.75
2019-03-04T06:09:05.232Z,11.90
2019-03-04T06:10:11.348Z,11.76
2019-03-04T06:11:15.410Z,11.76
2019-03-04T06:12:19.659Z,11.70
2019-03-04T06:13:23.716Z,11.69
2019-03-04T06:14:27.935Z,11.67
2019-03-04T06:15:32.142Z,11.63
2019-03-04T06:16:35.956Z,11.61
2019-03-04T06:17:40.205Z,11.63
2019-03-04T06:18:44.593Z,11.61
2019-03-04T06:19:48.411Z,11.60
2019-03-04T06:20:52.728Z,11.59
2019-03-04T06:21:56.874Z,11.62
2019-03-04T06:23:00.958Z,11.65
2019-03-04T06:24:05.011Z,11.62
2019-03-04T06:25:11.667Z,11.60
2019-03-04T06:26:15.497Z,11.61
2019-03-04T06:27:19.568Z,11.61
2019-03-04T06:28:23.974Z,11.61
2019-03-04T06:29:28.316Z,11.61
2019-03-04T06:30:32.300Z,11.63
2019-03-04T06:31:36.115Z,11.67
2019-03-04T06:32:40.364Z,11.66
2019-03-04T06:33:44.517Z,11.70
2019-03-04T06:34:48.656Z,11.71
2019-03-04T06:35:52.467Z,11.68
2019-03-04T06:36:56.289Z,11.70
2019-03-04T06:38:00.267Z,11.69
2019-03-04T06:39:05.973Z,11.68
2019-03-04T06:40:11.680Z,11.70
2019-03-04T06:41:16.244Z,11.73
2019-03-04T06:42:20.065Z,11.73
2019-03-04T06:43:23.899Z,11.74
2019-03-04T06:44:27.973Z,11.72
2019-03-04T06:45:32.117Z,11.73
2019-03-04T06:46:36.181Z,11.80
2019-03-04T06:47:40.511Z,11.77
2019-03-04T06:48:44.678Z,11.78
2019-03-04T06:49:48.768Z,11.77
2019-03-04T06:50:54.227Z,11.77
2019-03-04T06:51:58.340Z,11.79
2019-03-04T06:53:02.782Z,11.83
2019-03-04T06:54:43.169Z,11.87
2019-03-04T06:56:10.707Z,11.90
2019-03-04T06:57:30.898Z,11.93
2019-03-04T06:58:35.034Z,11.98
2019-03-04T07:00:02.533Z,12.01
2019-03-04T07:01:13.877Z,12.02
2019-03-04T07:02:18.348Z,12.03
2019-03-04T07:03:31.276Z,12.06
2019-03-04T07:05:00.104Z,12.08
2019-03-04T07:06:04.377Z,12.10
2019-03-04T07:07:08.264Z,12.12
2019-03-04T07:08:48.961Z,12.15
2019-03-04T07:09:53.050Z,12.16
2019-03-04T07:10:57.437Z,12.17
2019-03-04T07:12:01.510Z,12.18
2019-03-04T07:13:05.405Z,12.18
2019-03-04T07:14:09.635Z,12.19
2019-03-04T07:15:13.591Z,12.21
2019-03-04T07:16:17.913Z,12.21
2019-03-04T07:17:21.869Z,12.24
2019-03-04T07:18:26.009Z,12.27
2019-03-04T07:19:35.159Z,12.26
2019-03-04T07:20:38.969Z,12.24
2019-03-04T07:21:42.787Z,12.26
2019-03-04T07:22:48.438Z,12.26
2019-03-04T07:23:52.608Z,12.28
2019-03-04T07:24:56.690Z,12.29
2019-03-04T07:26:00.836Z,12.31
2019-03-04T07:27:05.058Z,12.33
2019-03-04T07:28:08.951Z,12.36
2019-03-04T07:29:15.081Z,12.38
2019-03-04T07:30:19.117Z,12.40
2019-03-04T07:31:23.245Z,12.43
2019-03-04T07:32:27.376Z,12.47
2019-03-04T07:33:31.569Z,12.52
2019-03-04T07:34:35.872Z,12.51
2019-03-04T07:35:39.761Z,12.55
2019-03-04T07:36:43.655Z,12.56
2019-03-04T07:37:47.550Z,12.58
2019-03-04T07:38:56.700Z,12.63
2019-03-04T07:40:00.535Z,12.65
2019-03-04T07:41:04.997Z,12.67
2019-03-04T07:42:08.962Z,12.69
2019-03-04T07:43:13.099Z,12.71
2019-03-04T07:44:17.067Z,12.75
2019-03-04T07:45:21.229Z,12.78
2019-03-04T07:46:25.657Z,12.85
2019-03-04T07:47:29.721Z,12.89
2019-03-04T07:48:34.187Z,12.97
2019-03-04T07:49:38.330Z,13.03
2019-03-04T07:50:42.292Z,13.12
2019-03-04T07:51:46.510Z,13.23
2019-03-04T07:52:57.705Z,13.37
2019-03-04T07:54:01.676Z,13.48
2019-03-04T07:55:05.895Z,13.62
2019-03-04T07:56:10.398Z,13.72
2019-03-04T07:57:14.711Z,13.86
2019-03-04T07:58:18.734Z,13.92
2019-03-04T07:59:22.868Z,13.95
2019-03-04T08:00:26.767Z,14.00
2019-03-04T08:01:31.112Z,14.09
2019-03-04T08:02:35.018Z,14.13
2019-03-04T08:03:39.238Z,14.20
2019-03-04T08:04:43.644Z,14.30
2019-03-04T08:05:47.530Z,14.39
2019-03-04T08:06:53.194Z,14.48
2019-03-04T08:07:57.276Z,14.60
2019-03-04T08:09:43.053Z,14.75
2019-03-04T08:11:10.518Z,14.86
2019-03-04T08:13:00.104Z,14.84
2019-03-04T08:14:04.431Z,14.84
2019-03-04T08:15:10.379Z,14.87
2019-03-04T08:16:14.841Z,14.85
2019-03-04T08:17:19.058Z,14.85
2019-03-04T08:18:22.950Z,14.89
2019-03-04T08:19:26.844Z,14.95
2019-03-04T08:20:31.627Z,14.95
2019-03-04T08:21:35.525Z,15.04
2019-03-04T08:22:39.417Z,15.04
2019-03-04T08:23:43.561Z,15.05
2019-03-04T08:24:47.459Z,15.10
2019-03-04T08:25:51.428Z,15.13
2019-03-04T08:26:55.560Z,15.19
2019-03-04T08:27:59.459Z,15.25
2019-03-04T08:29:03.427Z,15.30
2019-03-04T08:30:09.774Z,15.32
2019-03-04T08:31:13.890Z,15.40
2019-03-04T08:32:17.786Z,15.30
2019-03-04T08:33:21.940Z,15.45
2019-03-04T08:34:30.952Z,15.48
2019-03-04T08:35:31.546Z,15.48
2019-03-04T08:36:35.696Z,15.50
2019-03-04T08:37:40.012Z,15.55
2019-03-04T08:38:43.838Z,15.60
2019-03-04T08:39:48.057Z,15.61
2019-03-04T08:40:52.119Z,15.63
2019-03-04T08:41:56.545Z,15.63
2019-03-04T08:43:00.784Z,15.62
2019-03-04T08:44:04.995Z,15.61
2019-03-04T08:45:09.774Z,15.70
2019-03-04T08:46:13.999Z,15.65
2019-03-04T08:47:17.825Z,15.58
2019-03-04T08:48:22.045Z,15.56
2019-03-04T08:49:26.200Z,15.60
2019-03-04T08:50:30.169Z,15.58
2019-03-04T08:51:34.657Z,15.58
2019-03-04T08:52:38.968Z,15.63
2019-03-04T08:53:43.698Z,15.63
2019-03-04T08:54:47.765Z,15.64
2019-03-04T08:55:53.124Z,15.65
2019-03-04T08:57:03.844Z,15.69
2019-03-04T08:58:03.133Z,15.69
2019-03-04T08:59:06.955Z,15.72
2019-03-04T09:00:19.315Z,15.73
2019-03-04T09:01:23.815Z,15.76
2019-03-04T09:02:27.879Z,15.76
2019-03-04T09:03:31.703Z,15.79
2019-03-04T09:04:35.853Z,15.82
2019-03-04T09:05:39.929Z,15.82
2019-03-04T09:06:43.831Z,15.83
2019-03-04T09:07:47.903Z,15.89
2019-03-04T09:08:51.800Z,15.89
2019-03-04T09:09:55.783Z,15.91
2019-03-04T09:10:59.750Z,15.92
2019-03-04T09:12:03.985Z,15.95
2019-03-04T09:13:10.572Z,15.96
2019-03-04T09:14:14.316Z,16.05
2019-03-04T09:15:18.386Z,15.98
2019-03-04T09:16:22.851Z,15.98
2019-03-04T09:17:27.028Z,15.99
2019-03-04T09:18:32.046Z,16.02
2019-03-04T09:19:36.006Z,16.06
2019-03-04T09:20:40.464Z,16.07
2019-03-04T09:21:44.738Z,16.11
2019-03-04T09:22:48.761Z,16.18
2019-03-04T09:23:52.927Z,16.15
2019-03-04T09:24:56.995Z,16.15
2019-03-04T09:26:11.211Z,16.17
2019-03-04T09:27:15.758Z,16.24
2019-03-04T09:28:19.725Z,16.22
2019-03-04T09:29:23.912Z,16.30
2019-03-04T09:30:27.906Z,16.27
2019-03-04T09:31:32.035Z,16.28
2019-03-04T09:32:36.116Z,16.31
2019-03-04T09:33:40.010Z,16.31
2019-03-04T09:34:44.328Z,16.36
2019-03-04T09:35:48.359Z,16.38
2019-03-04T09:36:52.439Z,16.39
2019-03-04T09:37:56.616Z,16.44
2019-03-04T09:39:00.969Z,16.46
2019-03-04T09:40:05.720Z,16.55
2019-03-04T09:41:09.614Z,16.62
2019-03-04T09:42:21.585Z,16.59
2019-03-04T09:43:25.833Z,16.41
2019-03-04T09:44:29.721Z,16.29
2019-03-04T09:45:38.884Z,16.21
2019-03-04T09:46:40.297Z,16.07
2019-03-04T09:47:45.232Z,15.97
2019-03-04T09:48:49.301Z,15.93
2019-03-04T09:49:53.520Z,15.85
2019-03-04T09:50:57.738Z,15.77
2019-03-04T09:52:01.877Z,15.75
2019-03-04T09:53:06.370Z,15.67
2019-03-04T09:54:10.523Z,15.64
2019-03-04T09:55:15.351Z,15.63
2019-03-04T09:56:19.885Z,15.62
2019-03-04T09:57:24.541Z,15.60
2019-03-04T09:58:28.616Z,15.59
2019-03-04T09:59:32.877Z,15.57
2019-03-04T10:00:39.565Z,15.60
2019-03-04T10:01:49.161Z,15.64
2019-03-04T10:02:53.964Z,15.52
2019-03-04T10:04:56.875Z,15.49
2019-03-04T10:06:34.502Z,15.46
2019-03-04T10:08:10.234Z,15.38
2019-03-04T10:09:56.647Z,15.35
2019-03-04T10:11:37.508Z,15.34
2019-03-04T10:13:13.209Z,15.40
2019-03-04T10:14:56.748Z,15.44
2019-03-04T10:16:43.390Z,15.52
2019-03-04T10:18:40.157Z,15.54
2019-03-04T10:20:02.875Z,15.56
2019-03-04T10:21:49.973Z,15.56
2019-03-04T10:23:40.442Z,15.52
2019-03-04T10:25:21.418Z,15.51
2019-03-04T10:27:17.230Z,15.52
2019-03-04T10:28:56.787Z,15.57
2019-03-04T10:30:44.356Z,15.68
2019-03-04T10:32:10.153Z,15.77
2019-03-04T10:33:54.340Z,15.93
2019-03-04T10:35:54.671Z,15.99
2019-03-04T10:37:12.968Z,16.17
2019-03-04T10:38:51.420Z,16.05
2019-03-04T10:40:58.152Z,16.02
2019-03-04T10:42:43.720Z,16.01
2019-03-04T10:44:27.635Z,16.01
2019-03-04T10:45:54.436Z,16.03
2019-03-04T10:46:59.608Z,16.08
2019-03-04T10:48:03.744Z,16.05
2019-03-04T10:49:07.726Z,16.05
2019-03-04T10:50:11.863Z,16.06
2019-03-04T10:51:15.814Z,16.06
2019-03-04T10:52:19.977Z,16.08
2019-03-04T10:53:24.210Z,16.08
2019-03-04T10:54:28.522Z,16.11
2019-03-04T10:55:41.502Z,16.13
2019-03-04T10:56:40.608Z,16.09
2019-03-04T10:57:44.091Z,16.11
2019-03-04T10:58:48.227Z,16.05
2019-03-04T10:59:52.620Z,15.97
2019-03-04T11:00:56.872Z,15.94
2019-03-04T11:02:01.341Z,15.83
2019-03-04T11:03:05.344Z,15.79
2019-03-04T11:04:09.597Z,15.71
2019-03-04T11:05:13.686Z,15.64
2019-03-04T11:06:17.676Z,15.61
2019-03-04T11:07:21.841Z,15.61
2019-03-04T11:08:25.903Z,15.62
2019-03-04T11:09:30.465Z,15.59
2019-03-04T11:10:34.922Z,15.60
2019-03-04T11:11:38.818Z,15.60
2019-03-04T11:12:43.321Z,15.63
2019-03-04T11:13:47.786Z,15.63
2019-03-04T11:14:51.874Z,15.63
2019-03-04T11:16:00.547Z,15.62
2019-03-04T11:17:04.685Z,15.64
2019-03-04T11:18:08.658Z,15.59
2019-03-04T11:19:12.633Z,15.54
2019-03-04T11:20:16.872Z,15.53
2019-03-04T11:21:21.019Z,15.53
2019-03-04T11:22:25.308Z,15.57
2019-03-04T11:23:30.362Z,15.61
2019-03-04T11:24:34.185Z,15.61
2019-03-04T11:25:38.255Z,15.58
2019-03-04T11:26:42.411Z,15.57
2019-03-04T11:27:46.371Z,15.55
2019-03-04T11:28:50.891Z,15.49
2019-03-04T11:29:54.932Z,15.49
2019-03-04T11:30:59.181Z,15.52
2019-03-04T11:32:03.140Z,15.49
2019-03-04T11:33:07.116Z,15.46
2019-03-04T11:34:11.502Z,15.43
2019-03-04T11:35:15.798Z,15.38
2019-03-04T11:36:20.003Z,15.29
2019-03-04T11:37:23.892Z,15.26
2019-03-04T11:38:38.787Z,15.26
2019-03-04T11:40:10.437Z,15.23
2019-03-04T11:41:17.208Z,15.19
2019-03-04T11:42:21.843Z,15.16
2019-03-04T11:43:25.736Z,15.15
2019-03-04T11:44:30.053Z,15.07
2019-03-04T11:45:34.383Z,15.09
2019-03-04T11:46:38.297Z,15.14
2019-03-04T11:47:42.520Z,15.10
2019-03-04T11:48:46.414Z,15.10
2019-03-04T11:49:50.621Z,15.08
2019-03-04T11:50:54.765Z,15.14
2019-03-04T11:51:58.972Z,15.08
2019-03-04T11:53:02.946Z,15.06
2019-03-04T11:54:06.848Z,15.05
2019-03-04T11:55:10.948Z,15.01
2019-03-04T11:56:14.924Z,15.00
2019-03-04T11:57:18.890Z,14.99
2019-03-04T11:58:22.785Z,14.96
2019-03-04T11:59:26.947Z,14.98
2019-03-04T12:00:38.285Z,14.99
2019-03-04T12:01:45.393Z,14.99
2019-03-04T12:02:49.537Z,15.04
2019-03-04T12:03:53.430Z,15.09
2019-03-04T12:04:57.569Z,15.17
2019-03-04T12:06:01.478Z,15.19
2019-03-04T12:07:05.439Z,15.19
2019-03-04T12:08:10.097Z,15.23
2019-03-04T12:09:15.887Z,15.26
2019-03-04T12:10:19.846Z,15.24
2019-03-04T12:11:24.080Z,15.29
2019-03-04T12:12:27.963Z,15.27
2019-03-04T12:13:32.351Z,15.30
2019-03-04T12:14:37.070Z,15.30
2019-03-04T12:15:41.027Z,15.32
2019-03-04T12:16:45.239Z,15.35
2019-03-04T12:17:49.129Z,15.44
2019-03-04T12:18:53.274Z,15.45
2019-03-04T12:19:57.162Z,15.47
2019-03-04T12:21:01.148Z,15.52
2019-03-04T12:22:05.115Z,15.59
2019-03-04T12:23:09.327Z,15.64
2019-03-04T12:24:13.494Z,15.58
2019-03-04T12:25:17.917Z,15.56
2019-03-04T12:26:22.149Z,15.54
2019-03-04T12:27:26.612Z,15.55
2019-03-04T12:28:31.012Z,15.57
2019-03-04T12:29:35.224Z,15.56
2019-03-04T12:30:39.190Z,15.54
2019-03-04T12:32:00.734Z,15.64
2019-03-04T12:33:05.534Z,15.68
2019-03-04T12:34:11.141Z,15.64
2019-03-04T12:35:15.568Z,15.71
2019-03-04T12:36:19.466Z,15.74
2019-03-04T12:37:23.626Z,15.78
2019-03-04T12:38:27.777Z,15.86
2019-03-04T12:39:31.754Z,15.91
2019-03-04T12:40:36.166Z,16.07
2019-03-04T12:41:40.228Z,16.21
2019-03-04T12:42:44.208Z,16.26
2019-03-04T12:43:48.095Z,16.29
2019-03-04T12:44:52.314Z,16.37
2019-03-04T12:45:56.461Z,16.47
2019-03-04T12:47:00.607Z,16.55
2019-03-04T12:48:04.597Z,16.50
2019-03-04T12:49:08.492Z,16.41
2019-03-04T12:50:17.830Z,16.25
2019-03-04T12:51:23.556Z,16.28
2019-03-04T12:52:27.569Z,16.19
2019-03-04T12:53:37.321Z,16.17
2019-03-04T12:54:37.684Z,16.13
2019-03-04T12:55:42.005Z,16.13
2019-03-04T12:56:46.064Z,16.09
2019-03-04T12:57:49.979Z,16.08
2019-03-04T12:58:53.801Z,16.09
2019-03-04T12:59:57.897Z,16.16
2019-03-04T13:01:01.833Z,16.17
2019-03-04T13:02:05.800Z,16.21
2019-03-04T13:03:18.980Z,16.21
2019-03-04T13:04:22.878Z,16.23
2019-03-04T13:05:27.103Z,16.21
2019-03-04T13:06:31.496Z,16.21
2019-03-04T13:07:35.321Z,16.28
2019-03-04T13:08:39.651Z,16.22
2019-03-04T13:09:43.870Z,16.24
2019-03-04T13:10:48.263Z,16.17
2019-03-04T13:11:52.488Z,16.09
2019-03-04T13:12:56.469Z,16.12
2019-03-04T13:14:00.365Z,16.08
2019-03-04T13:15:04.829Z,16.07
2019-03-04T13:16:08.742Z,16.08
2019-03-04T13:17:12.803Z,16.13
2019-03-04T13:18:16.970Z,16.13
2019-03-04T13:19:21.184Z,16.18
2019-03-04T13:20:25.251Z,16.21
2019-03-04T13:21:29.258Z,16.17
2019-03-04T13:22:33.073Z,16.14
2019-03-04T13:23:37.563Z,16.14
2019-03-04T13:24:41.650Z,16.13
2019-03-04T13:25:45.873Z,16.11
2019-03-04T13:26:49.698Z,16.10
2019-03-04T13:27:54.089Z,16.02
2019-03-04T13:28:58.251Z,16.00
2019-03-04T13:30:02.730Z,15.92
2019-03-04T13:31:07.044Z,15.80
2019-03-04T13:32:11.009Z,15.69
2019-03-04T13:33:15.278Z,15.58
2019-03-04T13:34:19.171Z,15.47
2019-03-04T13:35:24.755Z,15.41
2019-03-04T13:36:29.245Z,15.41
2019-03-04T13:37:33.306Z,15.36
2019-03-04T13:38:37.280Z,15.32
2019-03-04T13:39:41.673Z,15.25
2019-03-04T13:40:45.817Z,15.22
2019-03-04T13:41:49.954Z,15.25
2019-03-04T13:42:54.166Z,15.16
2019-03-04T13:43:58.443Z,15.09
2019-03-04T13:45:02.582Z,15.04
2019-03-04T13:46:06.723Z,15.00
2019-03-04T13:47:10.970Z,14.97
2019-03-04T13:48:14.937Z,14.95
2019-03-04T13:49:19.665Z,14.93
2019-03-04T13:50:24.502Z,14.98
2019-03-04T13:51:28.727Z,14.97
2019-03-04T13:52:33.115Z,15.04
2019-03-04T13:53:37.371Z,15.05
2019-03-04T13:54:41.444Z,15.10
2019-03-04T13:55:45.904Z,15.09
2019-03-04T13:56:49.844Z,15.13
2019-03-04T13:57:54.055Z,15.16
2019-03-04T13:58:58.708Z,15.17
2019-03-04T14:00:03.002Z,15.20
2019-03-04T14:01:07.733Z,15.20
2019-03-04T14:02:11.700Z,15.20
2019-03-04T14:03:15.669Z,15.18
2019-03-04T14:04:19.644Z,15.15
2019-03-04T14:05:23.855Z,15.15
2019-03-04T14:06:28.070Z,15.09
2019-03-04T14:07:31.893Z,15.06
2019-03-04T14:08:36.110Z,15.06
2019-03-04T14:09:40.085Z,15.04
2019-03-04T14:10:44.017Z,14.99
2019-03-04T14:11:48.238Z,15.00
2019-03-04T14:12:52.199Z,14.99
2019-03-04T14:13:56.842Z,15.00
2019-03-04T14:15:01.002Z,15.02
2019-03-04T14:16:05.118Z,15.03
2019-03-04T14:17:09.582Z,15.09
2019-03-04T14:18:13.551Z,15.12
2019-03-04T14:19:17.619Z,15.11
2019-03-04T14:20:21.768Z,15.10
2019-03-04T14:21:26.155Z,15.04
2019-03-04T14:22:37.519Z,15.01